createdAt,value
2023-05-14T00:00:05.012Z,15.06
2023-05-14T00:02:33.146Z,15.07
2023-05-14T00:04:59.987Z,15.09
2023-05-14T00:07:30.886Z,15.10
2023-05-14T00:09:58.623Z,15.09
2023-05-14T00:12:26.823Z,15.11
2023-05-14T00:14:54.062Z,15.12
2023-05-14T00:17:20.893Z,15.13
2023-05-14T00:19:47.761Z,15.15
2023-05-14T00:22:14.458Z,15.17
2023-05-14T00:24:41.132Z,15.20
2023-05-14T00:27:07.893Z,15.20
2023-05-14T00:29:34.628Z,15.20
2023-05-14T00:32:01.439Z,15.20
2023-05-14T00:34:28.102Z,15.21
2023-05-14T00:36:54.799Z,15.20
2023-05-14T00:39:21.530Z,15.21
2023-05-14T00:41:48.212Z,15.21
2023-05-14T00:44:14.899Z,15.21
2023-05-14T00:46:43.893Z,15.22
2023-05-14T00:49:11.449Z,15.22
2023-05-14T00:51:38.624Z,15.24
2023-05-14T00:54:06.510Z,15.24
2023-05-14T00:56:35.022Z,15.21
2023-05-14T00:59:02.051Z,15.14
2023-05-14T01:01:28.967Z,15.09
2023-05-14T01:03:58.045Z,15.05
2023-05-14T01:06:28.933Z,14.99
2023-05-14T01:09:23.657Z,14.96
2023-05-14T01:11:50.275Z,14.95
2023-05-14T01:14:26.089Z,14.97
2023-05-14T01:16:58.775Z,15.00
2023-05-14T01:19:37.728Z,15.00
2023-05-14T01:22:04.763Z,14.99
2023-05-14T01:24:31.467Z,14.96
2023-05-14T01:27:07.286Z,14.94
2023-05-14T01:29:37.215Z,14.93
2023-05-14T01:32:08.033Z,14.94
2023-05-14T01:34:37.065Z,14.96
2023-05-14T01:37:05.301Z,14.98
2023-05-14T01:39:33.028Z,15.00
2023-05-14T01:42:01.129Z,15.00
2023-05-14T01:44:28.168Z,15.01
2023-05-14T01:46:54.788Z,15.01
2023-05-14T01:49:21.489Z,14.98
2023-05-14T01:51:48.232Z,14.95
2023-05-14T01:54:15.024Z,14.88
2023-05-14T01:56:41.780Z,14.87
2023-05-14T01:59:08.514Z,14.90
2023-05-14T02:01:36.402Z,14.92
2023-05-14T02:04:03.342Z,14.93
2023-05-14T02:06:30.022Z,14.92
2023-05-14T02:08:56.666Z,14.89
2023-05-14T02:11:23.473Z,14.88
2023-05-14T02:13:50.358Z,14.87
2023-05-14T02:16:17.197Z,14.87
2023-05-14T02:18:43.986Z,14.89
2023-05-14T02:21:11.131Z,14.92
2023-05-14T02:23:42.034Z,14.94
2023-05-14T02:26:10.884Z,14.93
2023-05-14T02:28:38.136Z,14.92
2023-05-14T02:31:05.018Z,14.90
2023-05-14T02:33:32.043Z,14.89
2023-05-14T02:35:59.033Z,14.87
2023-05-14T02:38:26.608Z,14.81
2023-05-14T02:40:53.448Z,14.76
2023-05-14T02:43:20.344Z,14.74
2023-05-14T02:45:47.383Z,14.74
2023-05-14T02:48:14.223Z,14.72
2023-05-14T02:50:40.913Z,14.70
2023-05-14T02:53:08.827Z,14.68
2023-05-14T02:55:35.932Z,14.65
2023-05-14T02:58:02.637Z,14.61
2023-05-14T03:00:29.351Z,14.60
2023-05-14T03:02:56.699Z,14.61
2023-05-14T03:05:24.051Z,14.63
2023-05-14T03:07:54.085Z,14.64
2023-05-14T03:10:21.012Z,14.65
2023-05-14T03:12:47.980Z,14.66
2023-05-14T03:15:15.066Z,14.64
2023-05-14T03:17:41.813Z,14.62
2023-05-14T03:20:08.913Z,14.62
2023-05-14T03:22:35.777Z,14.62
2023-05-14T03:25:02.526Z,14.63
2023-05-14T03:27:29.404Z,14.62
2023-05-14T03:29:56.631Z,14.62
2023-05-14T03:32:24.270Z,14.56
2023-05-14T03:34:50.992Z,14.49
2023-05-14T03:37:17.704Z,14.40
2023-05-14T03:39:44.431Z,14.32
2023-05-14T03:42:11.099Z,14.21
2023-05-14T03:44:37.838Z,14.12
2023-05-14T03:47:04.863Z,14.11
2023-05-14T03:49:32.213Z,14.12
2023-05-14T03:51:59.502Z,14.14
2023-05-14T03:54:26.748Z,14.17
2023-05-14T03:56:53.494Z,14.20
2023-05-14T03:59:20.136Z,14.22
2023-05-14T04:01:46.852Z,14.23
2023-05-14T04:04:13.696Z,14.23
2023-05-14T04:06:40.594Z,14.25
2023-05-14T04:09:07.288Z,14.28
2023-05-14T04:11:34.963Z,14.31
2023-05-14T04:14:01.780Z,14.35
2023-05-14T04:16:28.879Z,14.39
2023-05-14T04:18:55.819Z,14.42
2023-05-14T04:21:22.452Z,14.44
2023-05-14T04:23:49.888Z,14.46
2023-05-14T04:26:16.613Z,14.47
2023-05-14T04:28:43.297Z,14.48
2023-05-14T04:31:10.068Z,14.49
2023-05-14T04:33:36.754Z,14.52
2023-05-14T04:36:05.242Z,14.53
2023-05-14T04:38:32.180Z,14.54
2023-05-14T04:40:58.945Z,14.56
2023-05-14T04:43:25.644Z,14.61
2023-05-14T04:45:52.835Z,14.65
2023-05-14T04:48:19.567Z,14.69
2023-05-14T04:50:46.417Z,14.72
2023-05-14T04:53:13.043Z,14.73
2023-05-14T04:55:39.768Z,14.71
2023-05-14T04:58:06.424Z,14.71
2023-05-14T05:00:33.542Z,14.72
2023-05-14T05:03:00.473Z,14.74
2023-05-14T05:05:27.356Z,14.78
2023-05-14T05:07:54.367Z,14.80
2023-05-14T05:10:21.321Z,14.81
2023-05-14T05:12:48.375Z,14.78
2023-05-14T05:15:15.213Z,14.77
2023-05-14T05:17:42.053Z,14.76
2023-05-14T05:20:10.148Z,14.76
2023-05-14T05:22:36.921Z,14.77
2023-05-14T05:25:06.508Z,14.76
2023-05-14T05:27:35.809Z,14.76
2023-05-14T05:30:04.106Z,14.74
2023-05-14T05:32:31.459Z,14.73
2023-05-14T05:34:58.562Z,14.71
2023-05-14T05:37:25.816Z,14.66
2023-05-14T05:39:52.549Z,14.61
2023-05-14T05:42:19.232Z,14.54
2023-05-14T05:44:45.980Z,14.50
2023-05-14T05:47:12.687Z,14.48
2023-05-14T05:49:39.333Z,14.50
2023-05-14T05:52:06.189Z,14.54
2023-05-14T05:54:32.913Z,14.59
2023-05-14T05:57:00.252Z,14.66
2023-05-14T05:59:26.888Z,14.72
2023-05-14T06:01:53.782Z,14.76
2023-05-14T06:04:20.508Z,14.80
2023-05-14T06:06:47.225Z,14.84
2023-05-14T06:09:13.936Z,14.89
2023-05-14T06:11:40.700Z,14.91
2023-05-14T06:14:07.654Z,14.92
2023-05-14T06:16:34.531Z,14.96
2023-05-14T06:19:02.154Z,15.00
2023-05-14T06:21:29.065Z,15.06
2023-05-14T06:23:55.838Z,15.13
2023-05-14T06:26:23.623Z,15.16
2023-05-14T06:28:50.437Z,15.17
2023-05-14T06:31:18.536Z,15.19
2023-05-14T06:33:45.466Z,15.18
2023-05-14T06:36:12.309Z,15.19
2023-05-14T06:38:39.008Z,15.20
2023-05-14T06:41:05.861Z,15.24
2023-05-14T06:43:32.574Z,15.26
2023-05-14T06:45:59.367Z,15.27
2023-05-14T06:51:35.446Z,15.34
2023-05-14T06:54:02.293Z,15.39
2023-05-14T06:56:29.130Z,15.45
2023-05-14T06:58:56.483Z,15.54
2023-05-14T07:01:23.214Z,15.59
2023-05-14T07:03:50.221Z,15.64
2023-05-14T07:06:17.055Z,15.71
2023-05-14T07:08:45.985Z,15.82
2023-05-14T07:11:15.828Z,15.92
2023-05-14T07:13:42.973Z,16.00
2023-05-14T07:16:12.572Z,16.04
2023-05-14T07:18:39.266Z,16.08
2023-05-14T07:21:06.794Z,16.10
2023-05-14T07:23:36.299Z,16.12
2023-05-14T07:26:03.949Z,16.11
2023-05-14T07:28:30.673Z,16.11
2023-05-14T07:30:57.633Z,16.10
2023-05-14T07:33:25.601Z,16.13
2023-05-14T07:35:53.573Z,16.17
2023-05-14T07:38:20.943Z,16.21
2023-05-14T07:40:47.769Z,16.25
2023-05-14T07:43:14.730Z,16.28
2023-05-14T07:45:41.627Z,16.31
2023-05-14T07:48:08.780Z,16.33
2023-05-14T07:50:37.683Z,16.33
2023-05-14T07:53:04.584Z,16.35
2023-05-14T07:55:31.537Z,16.37
2023-05-14T07:57:58.325Z,16.41
2023-05-14T08:00:25.248Z,16.43
2023-05-14T08:02:52.449Z,16.48
2023-05-14T08:05:19.490Z,16.53
2023-05-14T08:07:46.240Z,16.55
2023-05-14T08:10:13.164Z,16.57
2023-05-14T08:12:40.146Z,16.57
2023-05-14T08:15:07.938Z,16.58
2023-05-14T08:17:34.769Z,16.58
2023-05-14T08:20:02.799Z,16.58
2023-05-14T08:22:29.493Z,16.56
2023-05-14T08:24:56.279Z,16.55
2023-05-14T08:27:22.984Z,16.55
2023-05-14T08:29:49.657Z,16.54
2023-05-14T08:32:23.383Z,16.52
2023-05-14T08:34:51.068Z,16.51
2023-05-14T08:37:17.873Z,16.48
2023-05-14T08:39:44.849Z,16.44
2023-05-14T08:42:13.957Z,16.39
2023-05-14T08:44:50.267Z,16.34
2023-05-14T08:47:21.538Z,16.32
2023-05-14T08:49:55.275Z,16.28
2023-05-14T08:52:23.271Z,16.19
2023-05-14T08:54:53.752Z,16.14
2023-05-14T08:57:24.965Z,16.08
2023-05-14T08:59:52.154Z,16.05
2023-05-14T09:02:23.749Z,16.04
2023-05-14T09:04:56.696Z,16.01
2023-05-14T09:07:24.337Z,16.03
2023-05-14T09:09:55.062Z,16.07
2023-05-14T09:12:22.324Z,16.15
2023-05-14T09:14:50.366Z,16.21
2023-05-14T09:17:17.996Z,16.27
2023-05-14T09:19:49.535Z,16.29
2023-05-14T09:22:18.302Z,16.31
2023-05-14T09:24:46.044Z,16.34
2023-05-14T09:27:22.772Z,16.34
2023-05-14T09:29:49.522Z,16.36
2023-05-14T09:32:16.286Z,16.37
2023-05-14T09:34:42.968Z,16.41
2023-05-14T09:37:10.135Z,16.49
2023-05-14T09:39:38.266Z,16.58
2023-05-14T09:42:05.771Z,16.67
2023-05-14T09:44:32.728Z,16.69
2023-05-14T09:46:59.665Z,16.66
2023-05-14T09:49:26.540Z,16.67
2023-05-14T09:51:53.461Z,16.74
2023-05-14T09:54:20.202Z,16.81
2023-05-14T09:56:47.311Z,16.89
2023-05-14T09:59:14.136Z,16.98
2023-05-14T10:01:43.321Z,17.07
2023-05-14T10:04:12.578Z,17.14
2023-05-14T10:06:40.332Z,17.27
2023-05-14T10:09:14.170Z,17.35
2023-05-14T10:11:44.504Z,17.37
2023-05-14T10:14:20.905Z,17.46
2023-05-14T10:16:50.672Z,17.53
2023-05-14T10:19:20.962Z,17.61
2023-05-14T10:21:53.767Z,17.71
2023-05-14T10:24:21.233Z,17.80
2023-05-14T10:26:49.012Z,17.84
2023-05-14T10:29:15.798Z,17.85
2023-05-14T10:31:51.439Z,17.85
2023-05-14T10:34:46.856Z,17.90
2023-05-14T10:37:17.728Z,17.97
2023-05-14T10:39:53.847Z,18.05
2023-05-14T10:42:23.157Z,18.13
2023-05-14T10:45:08.376Z,18.21
2023-05-14T10:47:40.153Z,18.26
2023-05-14T10:50:09.847Z,18.30
2023-05-14T10:52:37.259Z,18.34
2023-05-14T10:55:10.285Z,18.37
2023-05-14T10:57:39.232Z,18.42
2023-05-14T11:00:09.047Z,18.47
2023-05-14T11:02:38.622Z,18.54
2023-05-14T11:05:17.717Z,18.64
2023-05-14T11:07:47.088Z,18.71
2023-05-14T11:10:22.276Z,18.74
2023-05-14T11:12:53.796Z,18.81
2023-05-14T11:15:26.294Z,18.82
2023-05-14T11:17:54.470Z,18.83
2023-05-14T11:20:21.792Z,18.85
2023-05-14T11:22:51.937Z,18.87
2023-05-14T11:25:19.003Z,18.86
2023-05-14T11:27:47.324Z,18.88
2023-05-14T11:30:19.085Z,18.84
2023-05-14T11:32:47.695Z,18.83
2023-05-14T11:35:15.765Z,18.83
2023-05-14T11:37:43.878Z,18.79
2023-05-14T11:40:18.674Z,18.79
2023-05-14T11:42:45.927Z,18.80
2023-05-14T11:45:24.417Z,18.83
2023-05-14T11:47:53.433Z,18.84
2023-05-14T11:50:22.263Z,18.83
2023-05-14T11:52:50.840Z,18.76
2023-05-14T11:55:18.090Z,18.68
2023-05-14T11:57:45.028Z,18.66
2023-05-14T12:00:21.446Z,18.67
2023-05-14T12:02:50.286Z,18.63
2023-05-14T12:05:17.320Z,18.56
2023-05-14T12:07:47.631Z,18.48
2023-05-14T12:10:14.899Z,18.41
2023-05-14T12:12:46.277Z,18.38
2023-05-14T12:15:14.825Z,18.41
2023-05-14T12:17:41.779Z,18.44
2023-05-14T12:20:13.602Z,18.41
2023-05-14T12:22:42.380Z,18.40
2023-05-14T12:25:16.288Z,18.29
2023-05-14T12:27:45.421Z,18.19
2023-05-14T12:30:21.328Z,18.08
2023-05-14T12:32:54.373Z,17.99
2023-05-14T12:35:23.257Z,17.91
2023-05-14T12:37:50.255Z,17.85
2023-05-14T12:40:16.914Z,17.81
2023-05-14T12:42:43.656Z,17.82
2023-05-14T12:45:11.168Z,17.86
2023-05-14T12:47:37.985Z,17.92
2023-05-14T12:50:06.184Z,17.99
2023-05-14T12:52:38.373Z,18.06
2023-05-14T12:55:08.170Z,18.09
2023-05-14T12:57:35.635Z,18.08
2023-05-14T13:00:06.857Z,18.09
2023-05-14T13:02:42.162Z,18.11
2023-05-14T13:05:11.436Z,18.10
2023-05-14T13:07:38.734Z,18.10
2023-05-14T13:10:06.170Z,18.12
2023-05-14T13:12:33.103Z,18.15
2023-05-14T13:14:59.788Z,18.19
2023-05-14T13:17:26.612Z,18.23
2023-05-14T13:19:53.567Z,18.24
2023-05-14T13:22:20.483Z,18.25
2023-05-14T13:24:47.087Z,18.21
2023-05-14T13:27:13.862Z,18.17
2023-05-14T13:29:40.911Z,18.11
2023-05-14T13:32:07.817Z,18.05
2023-05-14T13:34:35.009Z,18.01
2023-05-14T13:37:01.688Z,17.98
2023-05-14T13:39:28.380Z,17.95
2023-05-14T13:41:56.981Z,17.90
2023-05-14T13:44:24.543Z,17.86
2023-05-14T13:46:51.585Z,17.84
2023-05-14T13:49:18.890Z,17.87
2023-05-14T13:51:45.955Z,17.90
2023-05-14T13:54:12.726Z,17.92
2023-05-14T13:56:39.370Z,17.96
2023-05-14T13:59:06.544Z,17.99
2023-05-14T14:01:33.416Z,18.02
2023-05-14T14:04:00.533Z,18.05
2023-05-14T14:06:30.325Z,18.04
2023-05-14T14:08:57.062Z,18.01
2023-05-14T14:11:23.767Z,18.00
2023-05-14T14:13:50.521Z,18.03
2023-05-14T14:16:17.414Z,18.09
2023-05-14T14:18:44.970Z,18.16
2023-05-14T14:21:12.134Z,18.22
2023-05-14T14:23:38.954Z,18.23
2023-05-14T14:26:05.888Z,18.25
2023-05-14T14:28:32.819Z,18.25
2023-05-14T14:30:59.673Z,18.24
2023-05-14T14:33:27.253Z,18.22
2023-05-14T14:35:54.209Z,18.20
2023-05-14T14:38:21.022Z,18.16
2023-05-14T14:40:47.792Z,18.13
2023-05-14T14:43:14.477Z,18.08
2023-05-14T14:45:41.313Z,18.05
2023-05-14T14:48:28.163Z,17.99
2023-05-14T14:50:55.890Z,17.88
2023-05-14T14:53:23.194Z,17.79
2023-05-14T14:55:51.145Z,17.72
2023-05-14T14:58:20.486Z,17.66
2023-05-14T15:00:48.047Z,17.61
2023-05-14T15:03:15.395Z,17.55
2023-05-14T15:05:42.822Z,17.50
2023-05-14T15:08:10.259Z,17.42
2023-05-14T15:10:38.428Z,17.36
2023-05-14T15:13:06.523Z,17.31
2023-05-14T15:15:34.721Z,17.23
2023-05-14T15:18:02.699Z,17.16
2023-05-14T15:20:29.644Z,17.12
2023-05-14T15:22:56.981Z,17.09
2023-05-14T15:25:24.972Z,17.07
2023-05-14T15:27:52.272Z,17.07
2023-05-14T15:30:19.000Z,17.08
2023-05-14T15:32:46.732Z,17.07
2023-05-14T15:35:13.783Z,17.07
2023-05-14T15:37:42.810Z,17.04
2023-05-14T15:40:10.516Z,17.01
2023-05-14T15:42:38.798Z,17.00
2023-05-14T15:45:06.216Z,16.96
2023-05-14T15:47:32.948Z,16.82
2023-05-14T15:50:00.159Z,16.70
2023-05-14T15:52:27.373Z,16.65
2023-05-14T15:54:56.084Z,16.65
2023-05-14T15:57:23.261Z,16.67
2023-05-14T15:59:50.063Z,16.68
2023-05-14T16:02:17.008Z,16.70
2023-05-14T16:04:45.510Z,16.71
2023-05-14T16:07:13.559Z,16.69
2023-05-14T16:09:40.378Z,16.64
2023-05-14T16:12:08.219Z,16.60
2023-05-14T16:14:35.761Z,16.51
2023-05-14T16:17:02.907Z,16.46
2023-05-14T16:19:29.930Z,16.43
2023-05-14T16:21:56.677Z,16.41
2023-05-14T16:24:23.525Z,16.42
2023-05-14T16:26:50.563Z,16.40
2023-05-14T16:29:17.743Z,16.37
2023-05-14T16:31:44.761Z,16.32
2023-05-14T16:34:11.644Z,16.30
2023-05-14T16:36:38.720Z,16.25
2023-05-14T16:39:08.193Z,16.23
2023-05-14T16:41:38.062Z,16.23
2023-05-14T16:44:05.016Z,16.23
2023-05-14T16:46:32.360Z,16.22
2023-05-14T16:48:59.169Z,16.18
2023-05-14T16:51:25.880Z,16.15
2023-05-14T16:53:54.687Z,16.13
2023-05-14T16:56:22.493Z,16.12
2023-05-14T16:58:49.374Z,16.12
2023-05-14T17:01:16.209Z,16.08
2023-05-14T17:03:43.678Z,16.04
2023-05-14T17:06:10.688Z,16.00
2023-05-14T17:08:37.407Z,15.95
2023-05-14T17:11:06.042Z,15.93
2023-05-14T17:13:33.604Z,15.93
2023-05-14T17:16:01.153Z,15.95
2023-05-14T17:18:28.518Z,16.00
2023-05-14T17:20:55.342Z,16.05
2023-05-14T17:23:22.020Z,16.09
2023-05-14T17:25:48.819Z,16.14
2023-05-14T17:28:15.468Z,16.17
2023-05-14T17:30:42.190Z,16.20
2023-05-14T17:33:09.635Z,16.22
2023-05-14T17:35:37.421Z,16.23
2023-05-14T17:38:04.265Z,16.22
2023-05-14T17:40:30.998Z,16.16
2023-05-14T17:42:57.756Z,16.09
2023-05-14T17:45:24.996Z,15.97
2023-05-14T17:47:52.406Z,15.88
2023-05-14T17:50:19.314Z,15.85
2023-05-14T17:52:46.346Z,15.85
2023-05-14T17:55:13.604Z,15.83
2023-05-14T17:57:42.079Z,15.82
2023-05-14T18:00:09.546Z,15.81
2023-05-14T18:02:39.668Z,15.82
2023-05-14T18:05:07.328Z,15.83
2023-05-14T18:07:35.283Z,15.85
2023-05-14T18:10:02.481Z,15.89
2023-05-14T18:12:29.381Z,15.92
2023-05-14T18:14:56.232Z,15.94
2023-05-14T18:17:23.005Z,15.96
2023-05-14T18:19:49.833Z,15.94
2023-05-14T18:22:16.576Z,15.91
2023-05-14T18:24:44.645Z,15.89
2023-05-14T18:27:11.593Z,15.86
2023-05-14T18:29:38.387Z,15.85
2023-05-14T18:32:05.687Z,15.86
2023-05-14T18:34:32.661Z,15.86
2023-05-14T18:36:59.482Z,15.85
2023-05-14T18:39:26.430Z,15.84
2023-05-14T18:41:53.383Z,15.82
2023-05-14T18:44:20.350Z,15.82
2023-05-14T18:46:47.205Z,15.84
2023-05-14T18:49:14.136Z,15.85
2023-05-14T18:51:40.952Z,15.84
2023-05-14T18:54:07.787Z,15.83
2023-05-14T18:56:36.896Z,15.79
2023-05-14T18:59:04.422Z,15.77
2023-05-14T19:01:31.496Z,15.76
2023-05-14T19:03:58.568Z,15.77
2023-05-14T19:06:25.805Z,15.78
2023-05-14T19:08:52.537Z,15.82
2023-05-14T19:11:19.238Z,15.79
2023-05-14T19:13:50.217Z,15.75
2023-05-14T19:16:17.090Z,15.72
2023-05-14T19:18:44.038Z,15.70
2023-05-14T19:21:10.945Z,15.70
2023-05-14T19:23:37.706Z,15.70
2023-05-14T19:26:05.115Z,15.72
2023-05-14T19:28:32.119Z,15.71
2023-05-14T19:30:59.216Z,15.69
2023-05-14T19:33:26.283Z,15.67
2023-05-14T19:35:53.133Z,15.66
2023-05-14T19:38:19.883Z,15.65
2023-05-14T19:40:47.957Z,15.65
2023-05-14T19:43:14.781Z,15.66
2023-05-14T19:45:42.960Z,15.66
2023-05-14T19:48:09.779Z,15.65
2023-05-14T19:50:37.355Z,15.64
2023-05-14T19:53:04.751Z,15.63
2023-05-14T19:55:31.438Z,15.62
2023-05-14T19:57:58.194Z,15.63
2023-05-14T20:00:25.166Z,15.64
2023-05-14T20:02:52.046Z,15.65
2023-05-14T20:05:18.938Z,15.64
2023-05-14T20:07:47.307Z,15.62
2023-05-14T20:10:14.755Z,15.57
2023-05-14T20:12:41.454Z,15.55
2023-05-14T20:15:09.557Z,15.54
2023-05-14T20:17:38.217Z,15.54
2023-05-14T20:20:06.945Z,15.54
2023-05-14T20:22:33.749Z,15.55
2023-05-14T20:25:00.588Z,15.53
2023-05-14T20:27:27.446Z,15.51
2023-05-14T20:29:54.220Z,15.49
2023-05-14T20:32:25.077Z,15.43
2023-05-14T20:34:52.069Z,15.36
2023-05-14T20:37:19.879Z,15.31
2023-05-14T20:39:47.024Z,15.25
2023-05-14T20:42:13.801Z,15.20
2023-05-14T20:44:40.538Z,15.12
2023-05-14T20:47:07.352Z,15.04
2023-05-14T20:49:34.084Z,15.01
2023-05-14T20:52:00.754Z,15.02
2023-05-14T20:54:27.456Z,15.05
2023-05-14T20:56:54.216Z,15.09
2023-05-14T20:59:20.965Z,15.12
2023-05-14T21:01:47.842Z,15.12
2023-05-14T21:04:15.544Z,15.13
2023-05-14T21:06:42.707Z,15.12
2023-05-14T21:09:09.391Z,15.14
2023-05-14T21:11:36.393Z,15.16
2023-05-14T21:14:03.104Z,15.19
2023-05-14T21:16:31.447Z,15.21
2023-05-14T21:18:58.444Z,15.23
2023-05-14T21:21:25.999Z,15.21
2023-05-14T21:23:53.874Z,15.18
2023-05-14T21:26:21.953Z,15.15
2023-05-14T21:28:49.116Z,15.15
2023-05-14T21:31:15.804Z,15.14
2023-05-14T21:33:42.605Z,15.14
2023-05-14T21:36:09.881Z,15.12
2023-05-14T21:38:36.801Z,15.09
2023-05-14T21:41:03.530Z,15.05
2023-05-14T21:43:30.273Z,15.01
2023-05-14T21:45:57.069Z,14.99
2023-05-14T21:48:23.762Z,14.98
2023-05-14T21:50:50.707Z,15.00
2023-05-14T21:53:17.372Z,15.00
2023-05-14T21:55:44.384Z,14.98
2023-05-14T21:58:11.128Z,14.94
2023-05-14T22:00:37.747Z,14.91
2023-05-14T22:03:04.582Z,14.88
2023-05-14T22:05:31.549Z,14.85
2023-05-14T22:07:58.494Z,14.83
2023-05-14T22:10:25.330Z,14.80
2023-05-14T22:12:52.019Z,14.77
2023-05-14T22:15:18.695Z,14.77
2023-05-14T22:17:47.035Z,14.74
2023-05-14T22:20:14.207Z,14.72
2023-05-14T22:22:40.896Z,14.69
2023-05-14T22:25:08.104Z,14.67
2023-05-14T22:27:34.844Z,14.65
2023-05-14T22:30:01.575Z,14.63
2023-05-14T22:32:28.322Z,14.60
2023-05-14T22:34:55.269Z,14.55
2023-05-14T22:37:22.254Z,14.50
2023-05-14T22:39:49.011Z,14.44
2023-05-14T22:42:15.724Z,14.39
2023-05-14T22:44:42.370Z,14.36
2023-05-14T22:47:09.082Z,14.35
2023-05-14T22:49:35.841Z,14.34
2023-05-14T22:52:02.534Z,14.31
2023-05-14T22:54:29.229Z,14.28
2023-05-14T22:56:55.989Z,14.26
2023-05-14T22:59:23.960Z,14.20
2023-05-14T23:01:50.950Z,14.11
2023-05-14T23:04:17.852Z,14.03
2023-05-14T23:06:44.679Z,14.00
2023-05-14T23:09:11.517Z,13.99
2023-05-14T23:11:38.427Z,14.00
2023-05-14T23:14:05.296Z,14.01
2023-05-14T23:16:32.225Z,14.01
2023-05-14T23:18:59.123Z,13.99
2023-05-14T23:21:26.089Z,13.98
2023-05-14T23:23:52.747Z,13.96
2023-05-14T23:26:19.478Z,13.95
2023-05-14T23:28:47.429Z,13.95
2023-05-14T23:31:14.278Z,13.94
2023-05-14T23:33:41.116Z,13.93
2023-05-14T23:36:08.367Z,13.91
2023-05-14T23:38:35.086Z,13.88
2023-05-14T23:41:01.802Z,13.83
2023-05-14T23:43:28.580Z,13.77
2023-05-14T23:45:55.581Z,13.74
2023-05-14T23:48:22.288Z,13.73
2023-05-14T23:50:48.979Z,13.71
2023-05-14T23:53:15.741Z,13.72
2023-05-14T23:55:42.482Z,13.70
2023-05-14T23:58:09.130Z,13.68
